createdAt,value
2023-05-15T00:02:44.694Z,12.07
2023-05-15T00:07:47.160Z,13.40
2023-05-15T00:12:49.374Z,13.40
2023-05-15T00:17:51.083Z,12.57
2023-05-15T00:22:52.967Z,12.30
2023-05-15T00:27:54.823Z,13.83
2023-05-15T00:32:57.342Z,21.00
2023-05-15T00:37:59.252Z,19.17
2023-05-15T00:43:02.559Z,21.08
2023-05-15T00:53:07.916Z,16.15
2023-05-15T00:58:10.817Z,18.95
2023-05-15T01:08:45.861Z,14.93
2023-05-15T01:13:47.823Z,11.68
2023-05-15T01:18:49.800Z,7.88
2023-05-15T01:24:34.397Z,33.45
2023-05-15T01:29:42.691Z,15.63
2023-05-15T01:34:53.368Z,53.38
2023-05-15T01:40:00.825Z,65.75
2023-05-15T01:45:11.157Z,105.63
2023-05-15T01:50:15.624Z,22.40
2023-05-15T01:55:20.580Z,85.85
2023-05-15T02:00:22.777Z,31.27
2023-05-15T02:05:27.052Z,34.97
2023-05-15T02:10:29.385Z,13.75
2023-05-15T02:15:31.827Z,11.38
2023-05-15T02:20:33.684Z,13.60
2023-05-15T02:26:14.036Z,15.70
2023-05-15T02:31:34.742Z,13.05
2023-05-15T02:36:41.711Z,14.55
2023-05-15T02:41:46.744Z,16.67
2023-05-15T02:46:51.104Z,23.50
2023-05-15T02:51:52.929Z,14.52
2023-05-15T02:56:54.940Z,15.03
2023-05-15T03:01:56.697Z,13.00
2023-05-15T03:06:58.978Z,18.05
2023-05-15T03:12:00.766Z,19.52
2023-05-15T03:17:03.282Z,16.10
2023-05-15T03:22:05.100Z,15.60
2023-05-15T03:27:06.821Z,16.67
2023-05-15T03:32:08.888Z,16.67
2023-05-15T03:37:10.714Z,17.00
2023-05-15T03:42:12.486Z,14.18
2023-05-15T03:47:16.095Z,13.63
2023-05-15T03:52:17.915Z,14.27
2023-05-15T03:57:20.280Z,12.93
2023-05-15T04:02:22.219Z,11.98
2023-05-15T04:07:24.104Z,12.27
2023-05-15T04:12:28.138Z,15.85
2023-05-15T04:17:30.532Z,13.88
2023-05-15T04:22:32.312Z,11.88
2023-05-15T04:27:34.019Z,13.90
2023-05-15T04:32:36.395Z,13.00
2023-05-15T04:37:42.868Z,11.90
2023-05-15T04:42:44.590Z,13.20
2023-05-15T04:47:46.310Z,10.93
2023-05-15T04:52:48.436Z,14.88
2023-05-15T04:57:51.165Z,13.00
2023-05-15T05:02:52.990Z,10.73
2023-05-15T05:07:54.689Z,16.65
2023-05-15T05:12:56.555Z,15.63
2023-05-15T05:17:58.703Z,22.27
2023-05-15T05:23:00.593Z,21.97
2023-05-15T05:28:02.466Z,22.45
2023-05-15T05:33:04.266Z,22.97
2023-05-15T05:38:06.265Z,13.87
2023-05-15T05:43:08.101Z,13.73
2023-05-15T05:48:10.062Z,18.50
2023-05-15T05:53:12.031Z,30.03
2023-05-15T05:58:24.076Z,33.13
2023-05-15T06:03:27.684Z,35.78
2023-05-15T06:08:30.353Z,33.85
2023-05-15T06:13:32.785Z,39.70
2023-05-15T06:18:34.546Z,35.67
2023-05-15T06:23:37.361Z,31.25
2023-05-15T06:28:39.249Z,31.58
2023-05-15T06:33:41.249Z,34.85
2023-05-15T06:38:42.921Z,30.73
2023-05-15T06:43:44.655Z,31.40
2023-05-15T06:48:48.082Z,30.77
2023-05-15T06:53:49.751Z,23.50
2023-05-15T06:58:51.409Z,29.90
2023-05-15T07:03:53.114Z,23.08
2023-05-15T07:08:54.820Z,24.27
2023-05-15T07:13:56.644Z,25.52
2023-05-15T07:18:58.490Z,21.43
2023-05-15T07:24:00.431Z,21.97
2023-05-15T07:29:02.171Z,21.85
2023-05-15T07:34:04.032Z,20.70
2023-05-15T07:39:05.967Z,18.48
2023-05-15T07:44:07.906Z,17.63
2023-05-15T07:49:09.608Z,16.65
2023-05-15T07:54:11.725Z,15.50
2023-05-15T07:59:13.931Z,17.57
2023-05-15T08:04:15.865Z,12.43
2023-05-15T08:09:17.635Z,9.97
2023-05-15T08:14:19.248Z,9.75
2023-05-15T08:19:22.029Z,9.32
2023-05-15T08:24:24.119Z,6.80
2023-05-15T08:29:26.135Z,9.13
2023-05-15T08:34:28.787Z,8.52
2023-05-15T08:44:33.206Z,11.15
2023-05-15T08:50:04.959Z,10.20
2023-05-15T08:55:07.371Z,11.38
2023-05-15T09:00:11.950Z,11.05
2023-05-15T09:05:13.655Z,10.70
2023-05-15T09:10:16.312Z,13.32
2023-05-15T09:15:23.093Z,10.57
2023-05-15T09:20:31.147Z,13.35
2023-05-15T09:25:44.850Z,11.18
2023-05-15T09:30:46.648Z,10.77
2023-05-15T09:35:48.339Z,10.18
2023-05-15T09:40:50.441Z,14.17
2023-05-15T09:45:52.439Z,10.57
2023-05-15T09:50:55.277Z,9.68
2023-05-15T10:01:00.050Z,9.00
2023-05-15T10:06:03.565Z,10.45
2023-05-15T10:11:06.361Z,8.50
2023-05-15T10:21:11.902Z,8.80
2023-05-15T10:26:16.747Z,8.10
2023-05-15T10:31:18.728Z,9.98
2023-05-15T10:36:21.048Z,8.05
2023-05-15T10:41:23.739Z,7.15
2023-05-15T10:46:26.720Z,6.90
2023-05-15T10:51:30.756Z,7.43
2023-05-15T10:56:38.599Z,5.22
2023-05-15T11:01:43.409Z,4.22
2023-05-15T11:06:47.611Z,4.78
2023-05-15T11:11:52.289Z,4.88
2023-05-15T11:16:54.159Z,4.75
2023-05-15T11:22:00.573Z,5.30
2023-05-15T11:27:04.855Z,4.65
2023-05-15T11:32:40.074Z,4.70
2023-05-15T11:37:43.535Z,5.18
2023-05-15T11:43:04.484Z,6.18
2023-05-15T11:48:08.332Z,4.25
2023-05-15T11:53:10.543Z,4.30
2023-05-15T11:58:17.394Z,5.63
2023-05-15T12:03:24.964Z,5.32
2023-05-15T12:08:32.418Z,5.10
2023-05-15T12:13:34.943Z,4.97
2023-05-15T12:18:36.764Z,6.78
2023-05-15T12:23:38.533Z,5.20
2023-05-15T12:28:40.431Z,5.30
2023-05-15T12:33:43.130Z,4.65
2023-05-15T12:38:44.808Z,6.28
2023-05-15T12:43:46.533Z,5.95
2023-05-15T12:48:49.690Z,4.85
2023-05-15T12:58:56.459Z,5.50
2023-05-15T13:03:58.847Z,6.05
2023-05-15T13:09:00.784Z,5.43
2023-05-15T13:14:11.177Z,6.28
2023-05-15T13:19:13.265Z,6.10
2023-05-15T13:24:15.009Z,6.07
2023-05-15T13:29:16.741Z,5.97
2023-05-15T13:34:18.683Z,7.50
2023-05-15T13:39:20.419Z,6.95
2023-05-15T13:44:22.130Z,6.30
2023-05-15T13:49:24.018Z,8.82
2023-05-15T13:54:25.724Z,5.83
2023-05-15T13:59:27.444Z,11.15
2023-05-15T14:04:29.451Z,6.23
2023-05-15T14:09:32.195Z,6.22
2023-05-15T14:14:33.873Z,7.35
2023-05-15T14:19:35.504Z,4.65
2023-05-15T14:24:37.427Z,4.00
2023-05-15T14:29:39.774Z,4.45
2023-05-15T14:34:41.603Z,5.40
2023-05-15T14:39:43.249Z,2.92
2023-05-15T14:44:45.098Z,3.38
2023-05-15T14:49:47.467Z,5.72
2023-05-15T14:55:00.751Z,3.97
2023-05-15T15:00:11.056Z,5.03
2023-05-15T15:05:12.903Z,9.50
2023-05-15T15:10:14.730Z,5.55
2023-05-15T15:15:17.242Z,5.45
2023-05-15T15:20:20.433Z,4.22
2023-05-15T15:25:22.533Z,7.28
2023-05-15T15:30:24.360Z,5.97
2023-05-15T15:35:26.315Z,5.40
2023-05-15T15:40:29.810Z,7.33
2023-05-15T15:45:31.808Z,4.78
2023-05-15T15:50:33.497Z,6.07
2023-05-15T15:55:35.177Z,4.95
2023-05-15T16:00:37.409Z,5.80
2023-05-15T16:05:39.254Z,7.78
2023-05-15T16:10:41.090Z,6.45
2023-05-15T16:15:42.744Z,9.70
2023-05-15T16:20:45.027Z,5.35
2023-05-15T16:25:46.707Z,5.55
2023-05-15T16:30:50.876Z,5.87
2023-05-15T16:35:53.059Z,5.85
2023-05-15T16:40:54.772Z,7.00
2023-05-15T16:45:56.509Z,7.70
2023-05-15T16:50:58.239Z,6.82
2023-05-15T16:56:00.371Z,6.33
2023-05-15T17:01:02.180Z,7.10
2023-05-15T17:06:04.277Z,5.60
2023-05-15T17:11:05.923Z,8.03
2023-05-15T17:16:08.630Z,6.90
2023-05-15T17:21:11.047Z,5.78
2023-05-15T17:26:12.685Z,6.88
2023-05-15T17:31:14.364Z,7.70
2023-05-15T17:36:16.272Z,7.88
2023-05-15T17:41:18.128Z,8.00
2023-05-15T17:46:19.801Z,6.57
2023-05-15T17:51:21.583Z,6.30
2023-05-15T17:56:23.327Z,9.10
2023-05-15T18:01:24.979Z,5.60
2023-05-15T18:06:26.725Z,6.00
2023-05-15T18:11:28.504Z,6.47
2023-05-15T18:16:31.348Z,7.75
2023-05-15T18:21:35.119Z,7.22
2023-05-15T18:26:38.650Z,7.13
2023-05-15T18:31:40.454Z,5.38
2023-05-15T18:36:42.460Z,5.50
2023-05-15T18:41:44.377Z,7.73
2023-05-15T18:46:46.330Z,5.63
2023-05-15T18:51:48.037Z,8.38
2023-05-15T18:56:49.772Z,7.18
2023-05-15T19:01:53.705Z,9.88
2023-05-15T19:06:55.434Z,11.70
2023-05-15T19:11:59.979Z,17.53
2023-05-15T19:17:01.963Z,17.00
2023-05-15T19:22:04.030Z,16.90
2023-05-15T19:27:06.105Z,13.37
2023-05-15T19:32:08.576Z,11.30
2023-05-15T19:37:10.557Z,9.65
2023-05-15T19:42:12.439Z,8.80
2023-05-15T19:47:14.146Z,7.37
2023-05-15T19:52:16.462Z,7.45
2023-05-15T19:57:18.488Z,8.68
2023-05-15T20:02:20.379Z,9.30
2023-05-15T20:07:22.094Z,10.35
2023-05-15T20:12:23.800Z,11.90
2023-05-15T20:17:26.139Z,9.88
2023-05-15T20:22:27.985Z,13.15
2023-05-15T20:27:29.848Z,13.40
2023-05-15T20:32:31.930Z,14.88
2023-05-15T20:37:34.410Z,17.83
2023-05-15T20:42:36.337Z,14.52
2023-05-15T20:47:38.275Z,17.60
2023-05-15T20:52:40.290Z,12.77
2023-05-15T20:57:46.267Z,11.15
2023-05-15T21:02:48.207Z,11.40
2023-05-15T21:07:50.204Z,9.55
2023-05-15T21:12:51.807Z,10.63
2023-05-15T21:17:53.499Z,9.32
2023-05-15T21:22:55.272Z,12.30
2023-05-15T21:27:57.148Z,12.03
2023-05-15T21:32:59.146Z,7.43
2023-05-15T21:38:01.258Z,10.17
2023-05-15T21:43:02.888Z,8.82
2023-05-15T21:48:05.172Z,11.47
2023-05-15T21:53:07.404Z,10.63
2023-05-15T21:58:09.097Z,8.00
2023-05-15T22:03:11.631Z,8.32
2023-05-15T22:08:13.963Z,7.80
2023-05-15T22:13:15.781Z,6.90
2023-05-15T22:18:17.549Z,10.25
2023-05-15T22:23:19.389Z,8.65
2023-05-15T22:28:21.224Z,7.38
2023-05-15T22:33:24.372Z,8.15
2023-05-15T22:38:26.138Z,7.38
2023-05-15T22:43:27.825Z,7.47
2023-05-15T22:48:29.977Z,9.27
2023-05-15T22:53:31.909Z,10.33
2023-05-15T22:58:33.718Z,7.50
2023-05-15T23:03:35.585Z,9.40
2023-05-15T23:08:37.313Z,5.38
2023-05-15T23:13:38.987Z,10.07
2023-05-15T23:18:40.859Z,6.93
2023-05-15T23:23:42.584Z,10.00
2023-05-15T23:28:44.314Z,12.68
2023-05-15T23:33:45.913Z,8.30
2023-05-15T23:38:47.813Z,9.50
2023-05-15T23:43:52.226Z,9.40
2023-05-15T23:48:54.011Z,13.38
2023-05-15T23:53:56.122Z,10.75
2023-05-15T23:58:57.991Z,8.70
